Wetterdaten: Woche 11.07.16 - 17.07.16 (KW28)
Datum Zeit Temp. Auen Feucht Auen Luftdruck Regen Richtung Windben
11.07.2016 00:00 20,7 C 88 % 1012,7 hPa 4,4 mm W-SW 5,6 km/h (1 Bft)
11.07.2016 01:00 19,5 C 90 % 1012,3 hPa 0,2 mm W-NW 1,6 km/h (1 Bft)
11.07.2016 02:00 18,7 C 91 % 1012,2 hPa 0,0 mm W 4,0 km/h (1 Bft)
11.07.2016 03:00 18,3 C 91 % 1012,0 hPa 0,0 mm W 3,7 km/h (1 Bft)
11.07.2016 04:00 17,7 C 91 % 1012,1 hPa 0,0 mm W 1,7 km/h (1 Bft)
11.07.2016 05:00 17,2 C 92 % 1012,4 hPa 0,0 mm W 1,7 km/h (1 Bft)
11.07.2016 06:00 18,1 C 92 % 1012,5 hPa 0,0 mm W 2,5 km/h (1 Bft)
11.07.2016 07:00 20,4 C 88 % 1012,5 hPa 0,0 mm W 1,3 km/h (1 Bft)
11.07.2016 08:00 22,8 C 82 % 1012,2 hPa 0,0 mm W 1,3 km/h (1 Bft)
11.07.2016 09:00 25,0 C 75 % 1012,2 hPa 0,0 mm O-SO 2,3 km/h (1 Bft)
11.07.2016 10:00 27,0 C 71 % 1012,1 hPa 0,0 mm SO 4,1 km/h (1 Bft)
11.07.2016 11:00 28,5 C 62 % 1012,0 hPa 0,0 mm SO 4,4 km/h (1 Bft)
11.07.2016 12:00 29,0 C 58 % 1011,6 hPa 0,0 mm SO 5,1 km/h (1 Bft)
11.07.2016 13:00 30,6 C 49 % 1011,4 hPa 0,0 mm SO 5,8 km/h (1 Bft)
11.07.2016 14:00 31,9 C 44 % 1010,7 hPa 0,0 mm W 8,7 km/h (2 Bft)
11.07.2016 15:00 30,4 C 51 % 1009,8 hPa 0,0 mm S-SO 4,4 km/h (1 Bft)
11.07.2016 16:00 29,2 C 58 % 1009,4 hPa 0,0 mm O 4,5 km/h (1 Bft)
11.07.2016 17:00 26,7 C 72 % 1009,2 hPa 0,0 mm O 0,4 km/h (0 Bft)
11.07.2016 18:00 26,2 C 77 % 1008,7 hPa 0,0 mm W-NW 1,2 km/h (1 Bft)
11.07.2016 19:00 24,8 C 81 % 1008,8 hPa 0,2 mm W-NW 2,4 km/h (1 Bft)
11.07.2016 20:00 22,5 C 85 % 1010,2 hPa 1,0 mm W 9,1 km/h (2 Bft)
11.07.2016 21:00 21,8 C 86 % 1012,4 hPa 0,0 mm S 4,9 km/h (1 Bft)
11.07.2016 22:00 21,1 C 86 % 1013,1 hPa 0,2 mm W-NW 2,0 km/h (1 Bft)
11.07.2016 23:00 20,2 C 89 % 1013,5 hPa 1,8 mm W 3,5 km/h (1 Bft)
12.07.2016 00:00 19,7 C 91 % 1013,5 hPa 2,8 mm W 6,4 km/h (2 Bft)
12.07.2016 01:00 19,2 C 91 % 1013,2 hPa 2,6 mm W-SW 1,5 km/h (1 Bft)
12.07.2016 02:00 18,8 C 91 % 1012,6 hPa 1,0 mm S-SO 4,3 km/h (1 Bft)
12.07.2016 03:00 18,8 C 92 % 1011,7 hPa 0,2 mm S-SO 2,9 km/h (1 Bft)
12.07.2016 04:00 18,1 C 91 % 1012,1 hPa 0,0 mm W 5,9 km/h (2 Bft)
12.07.2016 05:00 17,5 C 91 % 1012,3 hPa 0,0 mm W 3,3 km/h (1 Bft)
12.07.2016 06:00 17,8 C 92 % 1012,6 hPa 0,0 mm W 3,3 km/h (1 Bft)
12.07.2016 07:00 18,6 C 91 % 1013,2 hPa 0,0 mm W 2,7 km/h (1 Bft)
12.07.2016 08:00 20,4 C 88 % 1012,6 hPa 0,0 mm NO 2,4 km/h (1 Bft)
12.07.2016 09:00 20,9 C 86 % 1012,0 hPa 0,0 mm O-SO 4,7 km/h (1 Bft)
12.07.2016 10:00 21,8 C 83 % 1011,7 hPa 0,0 mm SO 3,1 km/h (1 Bft)
12.07.2016 11:00 23,1 C 80 % 1011,7 hPa 0,0 mm W-SW 5,6 km/h (1 Bft)
12.07.2016 12:00 23,2 C 78 % 1011,6 hPa 0,0 mm W 8,7 km/h (2 Bft)
12.07.2016 13:00 21,8 C 83 % 1011,3 hPa 0,0 mm SO 4,5 km/h (1 Bft)
12.07.2016 14:00 21,9 C 84 % 1010,7 hPa 0,0 mm O-SO 6,5 km/h (2 Bft)
12.07.2016 15:00 21,6 C 83 % 1010,5 hPa 0,0 mm O 8,3 km/h (2 Bft)
12.07.2016 16:00 21,2 C 83 % 1010,0 hPa 0,0 mm O-NO 6,3 km/h (2 Bft)
12.07.2016 17:00 21,3 C 81 % 1009,3 hPa 0,0 mm O-NO 6,3 km/h (2 Bft)
12.07.2016 18:00 19,0 C 86 % 1011,0 hPa 29,6 mm W 19,3 km/h (3 Bft)
12.07.2016 19:00 16,6 C 91 % 1013,0 hPa 6,2 mm W 15,7 km/h (3 Bft)
12.07.2016 20:00 16,0 C 91 % 1013,4 hPa 2,0 mm W-SW 4,0 km/h (1 Bft)
12.07.2016 21:00 15,6 C 91 % 1013,1 hPa 0,8 mm O-SO 2,4 km/h (1 Bft)
12.07.2016 22:00 15,6 C 92 % 1013,6 hPa 0,8 mm O-SO 0,9 km/h (0 Bft)
12.07.2016 23:00 15,6 C 92 % 1014,3 hPa 4,4 mm W 4,8 km/h (1 Bft)
13.07.2016 00:00 15,1 C 92 % 1013,6 hPa 0,8 mm W-SW 0,9 km/h (0 Bft)
13.07.2016 01:00 14,6 C 92 % 1012,8 hPa 0,0 mm W-NW 0,4 km/h (0 Bft)
13.07.2016 02:00 14,4 C 92 % 1012,3 hPa 0,0 mm W-NW 2,1 km/h (1 Bft)
13.07.2016 03:00 14,4 C 92 % 1012,2 hPa 1,0 mm W 1,1 km/h (0 Bft)
13.07.2016 04:00 14,5 C 92 % 1012,5 hPa 0,6 mm W 2,0 km/h (1 Bft)
13.07.2016 05:00 14,4 C 92 % 1013,4 hPa 3,4 mm W 3,9 km/h (1 Bft)
13.07.2016 06:00 14,5 C 92 % 1013,3 hPa 0,2 mm W 1,3 km/h (1 Bft)
13.07.2016 07:00 15,2 C 91 % 1013,6 hPa 0,0 mm W 3,3 km/h (1 Bft)
13.07.2016 08:00 15,5 C 91 % 1013,6 hPa 0,2 mm W 8,7 km/h (2 Bft)
13.07.2016 09:00 15,9 C 90 % 1013,7 hPa 0,0 mm W 7,4 km/h (2 Bft)
13.07.2016 10:00 17,1 C 88 % 1013,5 hPa 0,0 mm W 6,1 km/h (2 Bft)
13.07.2016 11:00 19,1 C 80 % 1013,2 hPa 0,0 mm W 7,8 km/h (2 Bft)
13.07.2016 12:00 19,2 C 77 % 1012,4 hPa 0,0 mm W-SW 10,8 km/h (2 Bft)
13.07.2016 13:00 18,3 C 79 % 1012,3 hPa 0,0 mm W-SW 5,2 km/h (1 Bft)
13.07.2016 14:00 16,8 C 87 % 1012,1 hPa 3,4 mm W-NW 6,8 km/h (2 Bft)
13.07.2016 15:00 15,6 C 90 % 1011,9 hPa 1,2 mm W 6,3 km/h (2 Bft)
13.07.2016 16:00 15,5 C 90 % 1011,6 hPa 0,8 mm W 4,7 km/h (1 Bft)
13.07.2016 17:00 15,2 C 90 % 1011,9 hPa 3,0 mm W 5,5 km/h (1 Bft)
13.07.2016 18:00 14,9 C 90 % 1011,9 hPa 0,0 mm W 6,9 km/h (2 Bft)
13.07.2016 19:00 13,7 C 90 % 1012,4 hPa 0,4 mm W 13,2 km/h (3 Bft)
13.07.2016 20:00 12,9 C 90 % 1013,2 hPa 1,2 mm W 11,6 km/h (2 Bft)
13.07.2016 21:00 12,7 C 90 % 1014,1 hPa 1,6 mm W 16,4 km/h (3 Bft)
13.07.2016 22:00 11,9 C 90 % 1015,2 hPa 0,8 mm W 19,4 km/h (3 Bft)
13.07.2016 23:00 11,5 C 90 % 1015,3 hPa 1,2 mm W 11,7 km/h (2 Bft)
14.07.2016 00:00 11,1 C 90 % 1015,3 hPa 0,6 mm W 6,1 km/h (2 Bft)
14.07.2016 01:00 11,0 C 90 % 1014,9 hPa 1,4 mm W 3,2 km/h (1 Bft)
14.07.2016 02:00 10,5 C 90 % 1014,3 hPa 1,8 mm W 6,7 km/h (2 Bft)
14.07.2016 03:00 10,2 C 90 % 1014,1 hPa 2,2 mm W 6,8 km/h (2 Bft)
14.07.2016 04:00 10,1 C 90 % 1014,0 hPa 2,4 mm W 6,0 km/h (2 Bft)
14.07.2016 05:00 9,8 C 90 % 1014,0 hPa 4,6 mm W 9,0 km/h (2 Bft)
14.07.2016 06:00 9,7 C 90 % 1013,7 hPa 3,4 mm W 9,1 km/h (2 Bft)
14.07.2016 07:00 9,8 C 90 % 1014,0 hPa 3,6 mm W 11,7 km/h (2 Bft)
14.07.2016 08:00 9,9 C 90 % 1014,1 hPa 3,0 mm W 14,8 km/h (3 Bft)
14.07.2016 09:00 10,1 C 90 % 1014,3 hPa 2,8 mm W 16,8 km/h (3 Bft)
14.07.2016 10:00 10,3 C 89 % 1014,7 hPa 2,2 mm W 14,9 km/h (3 Bft)
14.07.2016 11:00 11,2 C 89 % 1015,2 hPa 0,8 mm W 14,1 km/h (3 Bft)
14.07.2016 12:00 11,7 C 89 % 1015,8 hPa 1,2 mm W 12,1 km/h (2 Bft)
14.07.2016 13:00 11,7 C 89 % 1016,5 hPa 0,2 mm W 13,9 km/h (3 Bft)
14.07.2016 14:00 12,6 C 89 % 1017,1 hPa 0,8 mm W 16,9 km/h (3 Bft)
14.07.2016 15:00 12,9 C 89 % 1017,6 hPa 0,4 mm W 17,0 km/h (3 Bft)
14.07.2016 16:00 13,3 C 88 % 1018,0 hPa 0,0 mm W 16,5 km/h (3 Bft)
14.07.2016 17:00 12,5 C 88 % 1018,7 hPa 0,6 mm W 14,6 km/h (3 Bft)
14.07.2016 18:00 12,5 C 88 % 1019,1 hPa 0,0 mm W 13,3 km/h (3 Bft)
14.07.2016 19:00 12,2 C 88 % 1019,7 hPa 0,0 mm W 9,8 km/h (2 Bft)
14.07.2016 20:00 11,6 C 88 % 1020,2 hPa 0,0 mm W 5,6 km/h (1 Bft)
14.07.2016 21:00 10,5 C 89 % 1020,7 hPa 0,0 mm W-NW 0,8 km/h (0 Bft)
14.07.2016 22:00 9,7 C 89 % 1021,5 hPa 0,6 mm W-NW 2,0 km/h (1 Bft)
14.07.2016 23:00 10,1 C 89 % 1022,0 hPa 0,8 mm W-NW 3,9 km/h (1 Bft)
15.07.2016 00:00 10,1 C 89 % 1022,4 hPa 0,0 mm W-SW 2,7 km/h (1 Bft)
15.07.2016 01:00 9,6 C 89 % 1022,6 hPa 0,0 mm W 4,3 km/h (1 Bft)
15.07.2016 02:00 9,5 C 89 % 1022,5 hPa 0,0 mm W 1,3 km/h (1 Bft)
15.07.2016 03:00 9,8 C 88 % 1022,6 hPa 0,0 mm W 2,5 km/h (1 Bft)
15.07.2016 04:00 10,2 C 88 % 1022,7 hPa 0,0 mm W 2,3 km/h (1 Bft)
15.07.2016 05:00 10,3 C 88 % 1023,2 hPa 0,0 mm W 0,0 km/h (0 Bft)
15.07.2016 06:00 10,0 C 88 % 1023,6 hPa 0,0 mm W 0,9 km/h (0 Bft)
15.07.2016 07:00 11,4 C 88 % 1023,9 hPa 0,0 mm W 5,6 km/h (1 Bft)
15.07.2016 08:00 11,5 C 88 % 1024,2 hPa 0,0 mm W 6,7 km/h (2 Bft)
15.07.2016 09:00 12,1 C 88 % 1024,5 hPa 0,0 mm W 9,3 km/h (2 Bft)
15.07.2016 10:00 13,4 C 87 % 1024,8 hPa 0,0 mm W 8,7 km/h (2 Bft)
15.07.2016 11:00 14,7 C 81 % 1024,9 hPa 0,0 mm W 13,3 km/h (3 Bft)
15.07.2016 12:00 15,9 C 78 % 1024,8 hPa 0,0 mm W 11,2 km/h (2 Bft)
15.07.2016 13:00 14,3 C 85 % 1024,8 hPa 0,2 mm W-NW 7,9 km/h (2 Bft)
15.07.2016 14:00 14,7 C 81 % 1024,9 hPa 0,0 mm W 7,4 km/h (2 Bft)
15.07.2016 15:00 14,3 C 84 % 1025,2 hPa 0,0 mm W 10,3 km/h (2 Bft)
15.07.2016 16:00 14,8 C 81 % 1025,1 hPa 0,4 mm W-SW 8,4 km/h (2 Bft)
15.07.2016 17:00 13,8 C 87 % 1025,0 hPa 0,0 mm W 7,0 km/h (2 Bft)
15.07.2016 18:00 12,7 C 88 % 1025,1 hPa 0,6 mm W 4,3 km/h (1 Bft)
15.07.2016 19:00 12,7 C 88 % 1025,2 hPa 0,0 mm W-NW 0,9 km/h (0 Bft)
15.07.2016 20:00 12,5 C 88 % 1025,4 hPa 0,0 mm W-NW 1,2 km/h (1 Bft)
15.07.2016 21:00 11,8 C 88 % 1025,8 hPa 0,0 mm W-NW 0,4 km/h (0 Bft)
15.07.2016 22:00 11,1 C 87 % 1026,3 hPa 0,0 mm W-NW 1,1 km/h (0 Bft)
15.07.2016 23:00 11,1 C 87 % 1026,6 hPa 0,0 mm W-NW 2,5 km/h (1 Bft)
16.07.2016 00:00 11,2 C 87 % 1026,7 hPa 0,0 mm W-NW 1,9 km/h (1 Bft)
16.07.2016 01:00 11,2 C 87 % 1026,5 hPa 0,0 mm W-NW 1,7 km/h (1 Bft)
16.07.2016 02:00 11,1 C 87 % 1026,3 hPa 0,0 mm W-NW 1,2 km/h (1 Bft)
16.07.2016 03:00 11,1 C 87 % 1026,0 hPa 0,0 mm W 3,2 km/h (1 Bft)
16.07.2016 04:00 11,0 C 87 % 1025,7 hPa 0,0 mm W 4,0 km/h (1 Bft)
16.07.2016 05:00 11,0 C 87 % 1025,9 hPa 0,0 mm W 1,6 km/h (1 Bft)
16.07.2016 06:00 11,2 C 87 % 1026,2 hPa 0,0 mm W 2,5 km/h (1 Bft)
16.07.2016 07:00 12,3 C 87 % 1025,8 hPa 0,0 mm W 5,1 km/h (1 Bft)
16.07.2016 08:00 13,6 C 85 % 1026,0 hPa 0,0 mm W 6,1 km/h (2 Bft)
16.07.2016 09:00 14,4 C 81 % 1025,9 hPa 0,0 mm W 9,9 km/h (2 Bft)
16.07.2016 10:00 14,6 C 78 % 1025,9 hPa 0,0 mm W 13,4 km/h (3 Bft)
16.07.2016 11:00 15,2 C 78 % 1026,0 hPa 0,0 mm W 10,3 km/h (2 Bft)
16.07.2016 12:00 16,7 C 71 % 1025,7 hPa 0,0 mm W 11,3 km/h (2 Bft)
16.07.2016 13:00 15,2 C 75 % 1025,4 hPa 0,0 mm W 7,6 km/h (2 Bft)
16.07.2016 14:00 16,3 C 75 % 1025,0 hPa 0,0 mm W 10,7 km/h (2 Bft)
16.07.2016 15:00 16,8 C 69 % 1024,5 hPa 0,0 mm W 14,1 km/h (3 Bft)
16.07.2016 16:00 17,6 C 67 % 1024,3 hPa 0,0 mm W 15,2 km/h (3 Bft)
16.07.2016 17:00 17,8 C 66 % 1024,0 hPa 0,0 mm W 11,7 km/h (2 Bft)
16.07.2016 18:00 17,4 C 66 % 1023,7 hPa 0,0 mm W 10,8 km/h (2 Bft)
16.07.2016 19:00 17,0 C 68 % 1023,4 hPa 0,0 mm W 8,7 km/h (2 Bft)
16.07.2016 20:00 16,1 C 71 % 1023,6 hPa 0,0 mm W 4,1 km/h (1 Bft)
16.07.2016 21:00 14,6 C 81 % 1023,9 hPa 0,0 mm W 3,1 km/h (1 Bft)
16.07.2016 22:00 14,0 C 82 % 1023,9 hPa 0,0 mm W 5,5 km/h (1 Bft)
16.07.2016 23:00 13,7 C 83 % 1023,7 hPa 0,0 mm W 3,6 km/h (1 Bft)
17.07.2016 00:00 13,2 C 83 % 1023,4 hPa 0,0 mm W 4,1 km/h (1 Bft)
17.07.2016 01:00 13,5 C 78 % 1022,9 hPa 0,0 mm W 2,4 km/h (1 Bft)
17.07.2016 02:00 13,0 C 80 % 1022,6 hPa 0,0 mm W-NW 1,3 km/h (1 Bft)
17.07.2016 03:00 13,3 C 80 % 1022,3 hPa 0,0 mm W-NW 2,3 km/h (1 Bft)
17.07.2016 04:00 13,3 C 85 % 1022,3 hPa 0,2 mm W-NW 0,0 km/h (0 Bft)
17.07.2016 05:00 12,5 C 88 % 1022,7 hPa 0,8 mm W-NW 2,7 km/h (1 Bft)
17.07.2016 06:00 12,4 C 87 % 1023,0 hPa 1,0 mm W 1,9 km/h (1 Bft)
17.07.2016 07:00 12,6 C 86 % 1023,1 hPa 0,6 mm W 2,5 km/h (1 Bft)
17.07.2016 08:00 13,0 C 86 % 1023,0 hPa 0,4 mm W 3,5 km/h (1 Bft)
17.07.2016 09:00 13,3 C 86 % 1022,7 hPa 0,4 mm W 11,2 km/h (2 Bft)
17.07.2016 10:00 13,6 C 86 % 1022,6 hPa 0,8 mm W 11,0 km/h (2 Bft)
17.07.2016 11:00 14,2 C 86 % 1022,7 hPa 0,8 mm W 11,3 km/h (2 Bft)
17.07.2016 12:00 14,7 C 86 % 1023,0 hPa 0,4 mm W 7,2 km/h (2 Bft)
17.07.2016 13:00 15,5 C 87 % 1022,9 hPa 0,0 mm W 6,9 km/h (2 Bft)
17.07.2016 14:00 17,8 C 84 % 1022,6 hPa 0,0 mm W 9,7 km/h (2 Bft)
17.07.2016 15:00 18,8 C 81 % 1022,5 hPa 0,0 mm W 8,3 km/h (2 Bft)
17.07.2016 16:00 19,1 C 79 % 1021,9 hPa 0,0 mm W 9,3 km/h (2 Bft)
17.07.2016 17:00 18,2 C 84 % 1021,7 hPa 0,4 mm W 6,4 km/h (2 Bft)
17.07.2016 18:00 17,8 C 86 % 1021,7 hPa 0,0 mm W 4,8 km/h (1 Bft)
17.07.2016 19:00 16,9 C 87 % 1021,8 hPa 0,4 mm W 1,3 km/h (1 Bft)
17.07.2016 20:00 16,0 C 86 % 1021,6 hPa 0,0 mm W 0,3 km/h (0 Bft)
17.07.2016 21:00 15,4 C 85 % 1021,8 hPa 0,0 mm W 0,1 km/h (0 Bft)
17.07.2016 22:00 14,3 C 85 % 1022,0 hPa 0,0 mm W 0,1 km/h (0 Bft)
17.07.2016 23:00 13,7 C 85 % 1022,1 hPa 0,0 mm W 0,1 km/h (0 Bft)
Min-Datum _ 15.07.16 11.07.16 11.07.16 - - 11.07.16
_ Min-Zeit 02:05 14:30 18:55 - - 01:10
Minimum _ 9,2 C 41 % 1008,0 hPa - - 0,0 km/h (0 Bft)
Max-Datum _ 11.07.16 11.07.16 16.07.16 12.07.16 - 12.07.16
_ Max-Zeit 14:10 02:55 00:10 18:25 - 18:25
Maximum _ 32,9 C 92 % 1026,8 hPa 29,6 mm - 38,6 km/h
W (5 Bft)
Durchschnitt _ 15,8 C 85 % 1017,9 hPa #118,8 mm W 6,1 km/h (2 Bft)